createdAt,value
2022-10-10T00:01:33.381Z,101583.16
2022-10-10T00:04:02.561Z,101569.13
2022-10-10T00:06:33.260Z,101564.72
2022-10-10T00:09:02.413Z,101566.44
2022-10-10T00:11:30.865Z,101565.50
2022-10-10T00:14:00.410Z,101560.22
2022-10-10T00:16:28.663Z,101562.75
2022-10-10T00:18:56.871Z,101566.19
2022-10-10T00:21:25.056Z,101558.25
2022-10-10T00:23:53.690Z,101566.88
2022-10-10T00:26:21.885Z,101566.78
2022-10-10T00:28:50.394Z,101560.63
2022-10-10T00:31:20.054Z,101564.06
2022-10-10T00:33:48.363Z,101558.78
2022-10-10T00:36:16.679Z,101563.97
2022-10-10T00:38:44.820Z,101553.50
2022-10-10T00:41:12.944Z,101549.97
2022-10-10T00:43:41.225Z,101546.44
2022-10-10T00:46:09.698Z,101538.53
2022-10-10T00:48:42.445Z,101542.00
2022-10-10T00:51:14.290Z,101535.84
2022-10-10T00:53:46.990Z,101521.94
2022-10-10T00:56:19.046Z,101517.53
2022-10-10T00:58:54.194Z,101513.13
2022-10-10T01:01:22.415Z,101511.34
2022-10-10T01:03:52.081Z,101506.94
2022-10-10T01:06:20.413Z,101506.00
2022-10-10T01:08:48.569Z,101495.53
2022-10-10T01:11:45.853Z,101499.16
2022-10-10T01:14:30.944Z,101501.66
2022-10-10T01:17:08.701Z,101496.38
2022-10-10T01:20:23.168Z,101497.13
2022-10-10T01:23:15.293Z,101490.09
2022-10-10T01:25:59.786Z,101490.88
2022-10-10T01:28:41.092Z,101495.19
2022-10-10T01:31:14.259Z,101485.63
2022-10-10T01:33:54.402Z,101483.88
2022-10-10T01:36:28.583Z,101486.44
2022-10-10T01:39:04.174Z,101476.00
2022-10-10T01:41:35.673Z,101475.13
2022-10-10T01:44:05.281Z,101475.06
2022-10-10T01:46:34.419Z,101469.84
2022-10-10T01:49:03.586Z,101471.53
2022-10-10T01:51:54.061Z,101475.78
2022-10-10T01:54:36.802Z,101471.34
2022-10-10T01:57:20.375Z,101472.22
2022-10-10T02:00:04.835Z,101473.91
2022-10-10T02:02:44.368Z,101460.81
2022-10-10T02:05:23.702Z,101458.19
2022-10-10T02:07:57.053Z,101455.53
2022-10-10T02:10:29.939Z,101459.88
2022-10-10T02:13:00.343Z,101451.13
2022-10-10T02:15:38.003Z,101448.47
2022-10-10T02:18:08.711Z,101444.06
2022-10-10T02:20:37.770Z,101443.19
2022-10-10T02:23:07.115Z,101437.97
2022-10-10T02:25:41.328Z,101433.56
2022-10-10T02:28:16.504Z,101440.53
2022-10-10T02:30:50.398Z,101439.66
2022-10-10T02:33:26.554Z,101437.91
2022-10-10T02:35:55.514Z,101435.25
2022-10-10T02:38:24.171Z,101427.44
2022-10-10T02:40:52.911Z,101424.78
2022-10-10T02:43:21.413Z,101420.41
2022-10-10T02:45:51.392Z,101418.63
2022-10-10T02:48:20.089Z,101430.00
2022-10-10T02:50:48.275Z,101419.56
2022-10-10T02:53:16.455Z,101412.59
2022-10-10T02:55:44.640Z,101407.31
2022-10-10T02:58:13.332Z,101420.53
2022-10-10T03:00:41.503Z,101411.88
2022-10-10T03:03:10.987Z,101410.19
2022-10-10T03:05:39.116Z,101399.75
2022-10-10T03:08:11.424Z,101394.59
2022-10-10T03:10:39.953Z,101394.53
2022-10-10T03:13:08.123Z,101395.47
2022-10-10T03:15:36.364Z,101391.09
2022-10-10T03:18:04.741Z,101392.84
2022-10-10T03:20:34.256Z,101382.41
2022-10-10T03:23:02.345Z,101385.94
2022-10-10T03:25:30.490Z,101381.59
2022-10-10T03:27:58.682Z,101375.50
2022-10-10T03:30:26.778Z,101379.81
2022-10-10T03:32:54.902Z,101378.94
2022-10-10T03:35:23.024Z,101377.19
2022-10-10T03:37:52.555Z,101377.19
2022-10-10T03:40:20.859Z,101376.28
2022-10-10T03:42:49.247Z,101374.59
2022-10-10T03:45:18.581Z,101373.75
2022-10-10T03:47:46.842Z,101374.59
2022-10-10T03:50:15.135Z,101373.78
2022-10-10T03:52:43.284Z,101373.75
2022-10-10T03:55:12.942Z,101367.63
2022-10-10T03:57:41.020Z,101368.44
2022-10-10T04:00:11.484Z,101366.69
2022-10-10T04:02:39.755Z,101364.97
2022-10-10T04:05:09.131Z,101363.22
2022-10-10T04:07:37.354Z,101362.34
2022-10-10T04:10:06.914Z,101360.56
2022-10-10T04:12:36.581Z,101365.78
2022-10-10T04:15:05.114Z,101357.97
2022-10-10T04:17:33.208Z,101359.66
2022-10-10T04:20:01.379Z,101357.84
2022-10-10T04:22:29.581Z,101353.50
2022-10-10T04:24:57.924Z,101354.41
2022-10-10T04:27:26.164Z,101355.25
2022-10-10T04:29:55.687Z,101360.41
2022-10-10T04:32:23.845Z,101358.69
2022-10-10T04:34:51.908Z,101357.75
2022-10-10T04:37:20.062Z,101358.63
2022-10-10T04:39:48.198Z,101355.09
2022-10-10T04:42:16.390Z,101362.00
2022-10-10T04:44:44.536Z,101361.13
2022-10-10T04:47:14.009Z,101344.56
2022-10-10T04:49:42.503Z,101352.34
2022-10-10T04:52:10.805Z,101347.09
2022-10-10T04:54:39.269Z,101351.44
2022-10-10T04:57:07.504Z,101341.75
2022-10-10T04:59:35.623Z,101340.84
2022-10-10T05:02:04.340Z,101331.22
2022-10-10T05:04:34.050Z,101339.91
2022-10-10T05:07:02.277Z,101339.00
2022-10-10T05:09:30.973Z,101332.81
2022-10-10T05:11:59.121Z,101331.91
2022-10-10T05:14:28.212Z,101332.72
2022-10-10T05:16:56.455Z,101330.97
2022-10-10T05:19:24.819Z,101331.78
2022-10-10T05:21:54.699Z,101331.78
2022-10-10T05:24:23.610Z,101330.00
2022-10-10T05:26:51.799Z,101324.78
2022-10-10T05:29:20.117Z,101323.97
2022-10-10T05:31:48.198Z,101324.78
2022-10-10T05:34:16.834Z,101323.91
2022-10-10T05:36:45.115Z,101316.97
2022-10-10T05:39:14.729Z,101316.09
2022-10-10T05:41:42.863Z,101312.63
2022-10-10T05:44:11.250Z,101314.31
2022-10-10T05:46:39.452Z,101312.53
2022-10-10T05:49:07.589Z,101308.22
2022-10-10T05:51:35.811Z,101306.47
2022-10-10T05:54:05.242Z,101309.97
2022-10-10T05:56:34.756Z,101301.28
2022-10-10T05:59:03.167Z,101299.56
2022-10-10T06:01:31.347Z,101297.84
2022-10-10T06:03:59.471Z,101295.25
2022-10-10T06:06:27.888Z,101301.31
2022-10-10T06:08:56.038Z,101300.50
2022-10-10T06:11:25.990Z,101300.56
2022-10-10T06:13:55.507Z,101297.16
2022-10-10T06:16:24.160Z,101301.63
2022-10-10T06:18:53.026Z,101292.97
2022-10-10T06:21:22.179Z,101299.06
2022-10-10T06:23:50.628Z,101299.97
2022-10-10T06:26:19.143Z,101295.63
2022-10-10T06:28:47.452Z,101296.50
2022-10-10T06:31:17.008Z,101307.84
2022-10-10T06:33:46.460Z,101302.72
2022-10-10T06:36:16.058Z,101313.22
2022-10-10T06:38:46.647Z,101311.56
2022-10-10T06:41:15.222Z,101318.59
2022-10-10T06:43:43.330Z,101325.69
2022-10-10T06:46:11.809Z,101319.69
2022-10-10T06:48:41.509Z,101318.94
2022-10-10T06:51:14.356Z,101320.84
2022-10-10T06:53:42.873Z,101309.63
2022-10-10T06:56:17.378Z,101311.53
2022-10-10T06:58:45.821Z,101316.09
2022-10-10T07:01:14.213Z,101313.66
2022-10-10T07:03:43.680Z,101317.31
2022-10-10T07:06:13.521Z,101317.47
2022-10-10T07:08:42.810Z,101309.75
2022-10-10T07:11:10.996Z,101308.19
2022-10-10T07:13:39.813Z,101310.06
2022-10-10T07:16:08.573Z,101311.06
2022-10-10T07:18:37.721Z,101313.84
2022-10-10T07:21:07.875Z,101314.06
2022-10-10T07:23:36.902Z,101319.50
2022-10-10T07:26:07.433Z,101317.13
2022-10-10T07:28:36.439Z,101319.06
2022-10-10T07:31:07.464Z,101319.25
2022-10-10T07:33:38.366Z,101309.84
2022-10-10T07:36:09.130Z,101308.25
2022-10-10T07:38:39.194Z,101301.38
2022-10-10T07:41:09.123Z,101308.47
2022-10-10T07:43:38.207Z,101313.84
2022-10-10T07:46:11.287Z,101316.59
2022-10-10T07:48:40.656Z,101314.09
2022-10-10T07:51:11.100Z,101315.94
2022-10-10T07:53:40.396Z,101310.78
2022-10-10T07:56:10.220Z,101318.72
2022-10-10T07:58:38.695Z,101321.41
2022-10-10T08:01:09.573Z,101332.03
2022-10-10T08:03:37.941Z,101327.69
2022-10-10T08:06:10.069Z,101330.41
2022-10-10T08:08:48.531Z,101330.47
2022-10-10T08:11:20.110Z,101327.06
2022-10-10T08:13:48.722Z,101327.13
2022-10-10T08:16:17.064Z,101328.97
2022-10-10T08:18:45.206Z,101329.06
2022-10-10T08:21:16.381Z,101333.56
2022-10-10T08:23:44.711Z,101320.50
2022-10-10T08:26:16.571Z,101329.31
2022-10-10T08:28:45.451Z,101332.88
2022-10-10T08:31:15.856Z,101319.72
2022-10-10T08:33:45.948Z,101324.13
2022-10-10T08:36:19.053Z,101316.25
2022-10-10T08:38:47.826Z,101319.78
2022-10-10T08:41:28.653Z,101317.19
2022-10-10T08:44:02.015Z,101313.69
2022-10-10T08:46:38.015Z,101314.56
2022-10-10T08:49:18.051Z,101322.44
2022-10-10T08:51:57.074Z,101323.31
2022-10-10T08:54:27.220Z,101319.84
2022-10-10T08:57:01.132Z,101324.22
2022-10-10T08:59:34.744Z,101325.13
2022-10-10T09:02:43.757Z,101324.22
2022-10-10T09:05:19.933Z,101320.75
2022-10-10T09:08:19.787Z,101318.97
2022-10-10T09:10:58.023Z,101316.31
2022-10-10T09:13:34.546Z,101310.16
2022-10-10T09:16:07.428Z,101304.84
2022-10-10T09:18:55.315Z,101313.59
2022-10-10T09:21:27.453Z,101308.28
2022-10-10T09:24:06.067Z,101306.47
2022-10-10T09:26:41.479Z,101310.81
2022-10-10T09:29:27.499Z,101315.16
2022-10-10T09:31:59.809Z,101313.34
2022-10-10T09:34:35.376Z,101309.81
2022-10-10T09:37:05.222Z,101314.22
2022-10-10T09:39:43.982Z,101308.00
2022-10-10T09:42:15.937Z,101318.47
2022-10-10T09:44:45.271Z,101319.22
2022-10-10T09:47:15.504Z,101314.72
2022-10-10T09:49:44.586Z,101312.81
2022-10-10T09:52:27.911Z,101310.94
2022-10-10T09:55:03.179Z,101312.63
2022-10-10T09:57:37.250Z,101315.19
2022-10-10T10:00:30.071Z,101308.88
2022-10-10T10:03:15.603Z,101306.19
2022-10-10T10:05:47.676Z,101316.69
2022-10-10T10:08:28.635Z,101321.91
2022-10-10T10:10:59.428Z,101321.97
2022-10-10T10:13:32.112Z,101334.31
2022-10-10T10:16:07.921Z,101329.03
2022-10-10T10:18:41.968Z,101330.72
2022-10-10T10:21:19.062Z,101326.22
2022-10-10T10:23:55.641Z,101330.53
2022-10-10T10:26:44.835Z,101340.09
2022-10-10T10:29:30.194Z,101348.91
2022-10-10T10:32:09.930Z,101350.59
2022-10-10T10:35:02.169Z,101353.19
2022-10-10T10:37:45.004Z,101343.41
2022-10-10T10:40:29.873Z,101345.06
2022-10-10T10:44:02.184Z,101344.09
2022-10-10T10:46:45.393Z,101339.66
2022-10-10T10:49:18.798Z,101349.22
2022-10-10T10:52:09.828Z,101347.25
2022-10-10T10:54:52.333Z,101343.50
2022-10-10T10:57:45.610Z,101340.69
2022-10-10T11:01:17.288Z,101338.59
2022-10-10T11:05:18.961Z,101331.00
2022-10-10T11:06:34.054Z,101332.28
2022-10-10T11:09:31.197Z,101319.63
2022-10-10T11:12:17.076Z,101324.59
2022-10-10T11:14:56.725Z,101326.81
2022-10-10T11:17:37.203Z,101327.41
2022-10-10T11:20:18.478Z,101332.38
2022-10-10T11:22:51.275Z,101324.88
2022-10-10T11:25:25.985Z,101328.00
2022-10-10T11:28:02.027Z,101333.97
2022-10-10T11:30:35.778Z,101329.69
2022-10-10T11:33:12.928Z,101337.97
2022-10-10T11:35:47.862Z,101343.63
2022-10-10T11:38:24.496Z,101340.34
2022-10-10T11:40:59.460Z,101337.03
2022-10-10T11:43:45.854Z,101337.34
2022-10-10T11:46:26.401Z,101345.53
2022-10-10T11:49:02.732Z,101351.13
2022-10-10T11:51:44.735Z,101355.75
2022-10-10T11:54:26.154Z,101364.72
2022-10-10T11:57:01.008Z,101362.19
2022-10-10T11:59:36.779Z,101356.13
2022-10-10T12:02:19.241Z,101368.63
2022-10-10T12:04:49.292Z,101369.56
2022-10-10T12:07:25.164Z,101384.66
2022-10-10T12:09:57.364Z,101390.97
2022-10-10T12:12:30.819Z,101374.31
2022-10-10T12:15:03.346Z,101380.63
2022-10-10T12:17:39.756Z,101380.78
2022-10-10T12:20:34.279Z,101380.03
2022-10-10T12:23:24.096Z,101386.38
2022-10-10T12:25:52.284Z,101377.69
2022-10-10T12:28:30.983Z,101384.84
2022-10-10T12:31:36.930Z,101381.41
2022-10-10T12:34:44.267Z,101386.75
2022-10-10T12:37:26.038Z,101381.47
2022-10-10T12:40:30.615Z,101380.59
2022-10-10T12:43:20.290Z,101384.97
2022-10-10T12:46:18.038Z,101386.63
2022-10-10T12:48:58.540Z,101385.75
2022-10-10T12:51:27.771Z,101384.75
2022-10-10T12:54:00.913Z,101382.91
2022-10-10T12:56:54.348Z,101389.06
2022-10-10T12:59:26.283Z,101389.97
2022-10-10T13:01:58.474Z,101385.69
2022-10-10T13:04:28.419Z,101399.81
2022-10-10T13:06:59.472Z,101391.13
2022-10-10T13:09:35.357Z,101399.09
2022-10-10T13:12:07.282Z,101395.69
2022-10-10T13:14:44.337Z,101395.72
2022-10-10T13:17:25.551Z,101394.06
2022-10-10T13:19:55.214Z,101397.72
2022-10-10T13:22:23.914Z,101397.94
2022-10-10T13:24:56.326Z,101405.19
2022-10-10T13:27:27.612Z,101403.56
2022-10-10T13:29:56.899Z,101406.31
2022-10-10T13:32:28.639Z,101403.78
2022-10-10T13:34:59.860Z,101411.81
2022-10-10T13:37:29.468Z,101414.50
2022-10-10T13:39:59.289Z,101419.81
2022-10-10T13:42:36.924Z,101417.28
2022-10-10T13:45:38.671Z,101427.13
2022-10-10T13:48:30.087Z,101442.13
2022-10-10T13:51:06.281Z,101442.19
2022-10-10T13:53:54.266Z,101442.22
2022-10-10T13:56:28.151Z,101436.91
2022-10-10T13:59:05.680Z,101449.22
2022-10-10T14:01:37.931Z,101450.09
2022-10-10T14:04:20.446Z,101454.53
2022-10-10T14:06:57.474Z,101454.56
2022-10-10T14:09:31.899Z,101467.75
2022-10-10T14:12:04.219Z,101476.56
2022-10-10T14:14:42.274Z,101493.31
2022-10-10T14:17:14.989Z,101502.16
2022-10-10T14:19:44.910Z,101503.09
2022-10-10T14:22:13.286Z,101523.38
2022-10-10T14:24:41.552Z,101533.91
2022-10-10T14:27:23.756Z,101545.38
2022-10-10T14:29:53.037Z,101559.44
2022-10-10T14:32:21.345Z,101555.03
2022-10-10T14:34:49.605Z,101555.94
2022-10-10T14:37:25.094Z,101562.09
2022-10-10T14:39:53.843Z,101565.59
2022-10-10T14:42:25.510Z,101590.19
2022-10-10T14:44:53.693Z,101580.53
2022-10-10T14:47:24.949Z,101580.50
2022-10-10T14:49:53.401Z,101586.69
2022-10-10T14:52:21.880Z,101591.06
2022-10-10T14:54:50.013Z,101598.97
2022-10-10T14:57:19.583Z,101596.34
2022-10-10T14:59:50.173Z,101603.34
2022-10-10T15:02:21.087Z,101605.13
2022-10-10T15:04:50.257Z,101616.50
2022-10-10T15:07:19.238Z,101608.63
2022-10-10T15:12:40.181Z,101615.66
2022-10-10T15:15:14.252Z,101622.72
2022-10-10T15:17:45.708Z,101624.44
2022-10-10T15:20:14.754Z,101633.22
2022-10-10T15:22:43.165Z,101638.50
2022-10-10T15:25:11.693Z,101644.66
2022-10-10T15:27:41.821Z,101652.59
2022-10-10T15:30:14.704Z,101651.75
2022-10-10T15:32:43.609Z,101650.84
2022-10-10T15:35:16.405Z,101662.25
2022-10-10T15:37:45.333Z,101673.56
2022-10-10T15:40:16.616Z,101670.00
2022-10-10T15:42:44.876Z,101678.88
2022-10-10T15:45:22.632Z,101684.19
2022-10-10T15:48:00.239Z,101689.53
2022-10-10T15:50:28.410Z,101685.13
2022-10-10T15:52:56.517Z,101695.66
2022-10-10T15:55:24.674Z,101700.88
2022-10-10T15:57:52.821Z,101702.66
2022-10-10T16:00:22.477Z,101700.91
2022-10-10T16:02:50.626Z,101713.16
2022-10-10T16:05:18.952Z,101718.44
2022-10-10T16:07:48.469Z,101720.13
2022-10-10T16:10:17.237Z,101726.25
2022-10-10T16:12:45.366Z,101727.97
2022-10-10T16:15:13.970Z,101736.72
2022-10-10T16:17:43.418Z,101736.69
2022-10-10T16:20:13.039Z,101741.06
2022-10-10T16:22:41.251Z,101743.66
2022-10-10T16:25:21.740Z,101745.38
2022-10-10T16:27:52.019Z,101755.88
2022-10-10T16:30:20.968Z,101767.25
2022-10-10T16:32:50.696Z,101764.50
2022-10-10T16:35:19.013Z,101767.97
2022-10-10T16:37:47.255Z,101772.28
2022-10-10T16:40:15.519Z,101783.56
2022-10-10T16:42:43.729Z,101795.75
2022-10-10T16:45:12.945Z,101790.41
2022-10-10T16:47:41.087Z,101801.69
2022-10-10T16:50:11.722Z,101811.25
2022-10-10T16:52:40.528Z,101816.41
2022-10-10T16:55:11.247Z,101823.31
2022-10-10T16:57:41.017Z,101819.69
2022-10-10T17:00:11.906Z,101820.50
2022-10-10T17:02:42.202Z,101827.41
2022-10-10T17:05:12.071Z,101831.69
2022-10-10T17:07:40.227Z,101837.75
2022-10-10T17:10:09.795Z,101844.63
2022-10-10T17:12:37.939Z,101841.81
2022-10-10T17:15:07.805Z,101849.59
2022-10-10T17:17:36.486Z,101855.63
2022-10-10T17:20:07.066Z,101854.69
2022-10-10T17:22:37.448Z,101860.72
2022-10-10T17:25:06.934Z,101864.19
2022-10-10T17:27:35.964Z,101871.09
2022-10-10T17:30:06.987Z,101878.00
2022-10-10T17:32:35.198Z,101879.69
2022-10-10T17:35:03.582Z,101879.53
2022-10-10T17:37:32.146Z,101894.28
2022-10-10T17:40:04.384Z,101897.69
2022-10-10T17:42:32.476Z,101901.94
2022-10-10T17:45:00.639Z,101909.72
2022-10-10T17:47:29.353Z,101910.53
2022-10-10T17:49:57.513Z,101921.81
2022-10-10T17:52:25.922Z,101917.34
2022-10-10T17:54:54.116Z,101918.13
2022-10-10T17:57:23.647Z,101922.41
2022-10-10T17:59:51.771Z,101929.38
2022-10-10T18:02:20.721Z,101933.66
2022-10-10T18:04:48.878Z,101936.22
2022-10-10T18:07:18.709Z,101949.41
2022-10-10T18:09:47.140Z,101951.16
2022-10-10T18:12:15.244Z,101948.41
2022-10-10T18:14:45.094Z,101958.84
2022-10-10T18:17:13.964Z,101964.03
2022-10-10T18:19:42.369Z,101961.41
2022-10-10T18:22:10.536Z,101965.78
2022-10-10T18:24:38.881Z,101962.25
2022-10-10T18:27:06.968Z,101975.31
2022-10-10T18:29:35.421Z,101977.88
2022-10-10T18:32:05.366Z,101970.81
2022-10-10T18:34:33.484Z,101981.19
2022-10-10T18:37:01.648Z,101980.25
2022-10-10T18:39:33.165Z,101982.78
2022-10-10T18:42:01.929Z,101978.25
2022-10-10T18:44:30.152Z,101993.94
2022-10-10T18:46:58.266Z,101985.97
2022-10-10T18:49:28.122Z,101996.34
2022-10-10T18:51:56.323Z,101995.34
2022-10-10T18:54:27.200Z,101999.66
2022-10-10T18:56:55.291Z,102005.66
2022-10-10T18:59:25.820Z,102004.69
2022-10-10T19:01:54.067Z,102009.84
2022-10-10T19:04:23.081Z,102015.03
2022-10-10T19:06:57.015Z,102013.19
2022-10-10T19:09:26.805Z,102010.50
2022-10-10T19:11:55.255Z,102022.69
2022-10-10T19:14:23.544Z,102026.16
2022-10-10T19:16:51.836Z,102022.56
2022-10-10T19:19:20.868Z,102029.50
2022-10-10T19:21:49.998Z,102028.56
2022-10-10T19:24:21.380Z,102039.94
2022-10-10T19:26:56.805Z,102039.84
2022-10-10T19:29:27.261Z,102049.44
2022-10-10T19:31:55.967Z,102044.19
2022-10-10T19:34:24.794Z,102050.31
2022-10-10T19:36:53.572Z,102058.22
2022-10-10T19:39:23.249Z,102052.97
2022-10-10T19:41:52.909Z,102066.91
2022-10-10T19:44:21.060Z,102066.84
2022-10-10T19:46:49.453Z,102068.63
2022-10-10T19:49:17.723Z,102079.16
2022-10-10T19:51:46.586Z,102079.38
2022-10-10T19:54:14.847Z,102073.56
2022-10-10T19:56:44.410Z,102079.91
2022-10-10T19:59:12.581Z,102087.16
2022-10-10T20:01:40.935Z,102087.34
2022-10-10T20:04:09.249Z,102087.41
2022-10-10T20:06:37.388Z,102088.34
2022-10-10T20:09:10.419Z,102097.88
2022-10-10T20:11:40.034Z,102094.28
2022-10-10T20:14:10.742Z,102091.41
2022-10-10T20:16:40.964Z,102096.53
2022-10-10T20:19:09.553Z,102103.34
2022-10-10T20:21:37.772Z,102110.22
2022-10-10T20:24:09.174Z,102105.72
2022-10-10T20:26:38.018Z,102117.91
2022-10-10T20:29:09.038Z,102118.66
2022-10-10T20:31:38.673Z,102117.59
2022-10-10T20:34:07.990Z,102126.25
2022-10-10T20:36:37.059Z,102134.06
2022-10-10T20:39:08.900Z,102127.88
2022-10-10T20:41:38.973Z,102131.25
2022-10-10T20:44:12.533Z,102136.38
2022-10-10T20:46:43.700Z,102142.41
2022-10-10T20:49:16.374Z,102144.97
2022-10-10T20:51:48.498Z,102139.66
2022-10-10T20:54:18.615Z,102148.28
2022-10-10T20:56:48.487Z,102148.22
2022-10-10T20:59:18.359Z,102149.91
2022-10-10T21:01:46.817Z,102152.44
2022-10-10T21:04:15.640Z,102151.44
2022-10-10T21:06:43.977Z,102152.25
2022-10-10T21:09:14.846Z,102157.44
2022-10-10T21:11:45.545Z,102161.72
2022-10-10T21:14:17.218Z,102167.75
2022-10-10T21:16:45.588Z,102179.00
2022-10-10T21:19:14.063Z,102182.44
2022-10-10T21:21:42.263Z,102185.91
2022-10-10T21:24:12.595Z,102179.69
2022-10-10T21:26:42.713Z,102184.03
2022-10-10T21:29:11.034Z,102187.53
2022-10-10T21:31:41.642Z,102180.50
2022-10-10T21:34:15.557Z,102188.28
2022-10-10T21:36:43.798Z,102189.97
2022-10-10T21:39:12.797Z,102189.00
2022-10-10T21:41:41.224Z,102197.66
2022-10-10T21:44:10.864Z,102206.38
2022-10-10T21:46:40.350Z,102210.59
2022-10-10T21:49:12.041Z,102200.13
2022-10-10T21:51:43.431Z,102204.41
2022-10-10T21:54:12.190Z,102215.69
2022-10-10T21:56:40.766Z,102216.44
2022-10-10T21:59:09.577Z,102211.19
2022-10-10T22:01:37.902Z,102218.13
2022-10-10T22:04:08.345Z,102222.44
2022-10-10T22:06:36.595Z,102226.75
2022-10-10T22:09:05.434Z,102230.16
2022-10-10T22:11:35.345Z,102232.75
2022-10-10T22:14:03.926Z,102236.13
2022-10-10T22:16:32.464Z,102235.22
2022-10-10T22:19:01.122Z,102237.69
2022-10-10T22:21:32.569Z,102243.66
2022-10-10T22:24:02.566Z,102248.00
2022-10-10T22:26:31.718Z,102248.75
2022-10-10T22:29:00.097Z,102249.59
2022-10-10T22:31:29.335Z,102248.66
2022-10-10T22:33:58.130Z,102257.38
2022-10-10T22:36:26.235Z,102260.88
2022-10-10T22:38:55.772Z,102261.66
2022-10-10T22:41:24.149Z,102260.72
2022-10-10T22:43:52.473Z,102264.19
2022-10-10T22:46:20.733Z,102273.78
2022-10-10T22:48:49.016Z,102276.38
2022-10-10T22:51:19.145Z,102269.31
2022-10-10T22:53:49.523Z,102277.16
2022-10-10T22:56:21.890Z,102277.88
2022-10-10T22:58:51.859Z,102283.09
2022-10-10T23:01:23.265Z,102283.97
2022-10-10T23:03:55.053Z,102276.09
2022-10-10T23:06:23.235Z,102281.31
2022-10-10T23:08:51.641Z,102290.00
2022-10-10T23:11:21.095Z,102288.19
2022-10-10T23:13:49.213Z,102294.28
2022-10-10T23:16:17.381Z,102296.78
2022-10-10T23:18:45.939Z,102296.78
2022-10-10T23:21:14.029Z,102297.69
2022-10-10T23:23:42.335Z,102300.22
2022-10-10T23:26:11.191Z,102300.13
2022-10-10T23:28:40.842Z,102297.47
2022-10-10T23:31:10.818Z,102293.03
2022-10-10T23:33:39.940Z,102295.63
2022-10-10T23:36:12.041Z,102300.00
2022-10-10T23:38:41.227Z,102300.84
2022-10-10T23:41:10.467Z,102307.03
2022-10-10T23:43:40.468Z,102302.75
2022-10-10T23:46:09.150Z,102302.75
2022-10-10T23:48:37.967Z,102308.00
2022-10-10T23:51:07.256Z,102301.91
2022-10-10T23:53:35.942Z,102306.25
2022-10-10T23:56:04.434Z,102309.69
2022-10-10T23:58:32.723Z,102318.44
